Decoded Metar for LFBH (LA ROCHELLE/LALE in FRANCE) (IATA:N/A) | Meteo·Mobile Aviation Weather
aviador You're here:

LFBH Decoded Metar

LA ROCHELLE/LALE in FRANCE
Report Time2019-06-26 23:00:00
UTC Time2019-06-26 23:20:45
Flight Rules vfr VFR
Wind090° at 09 kt
W.Decomp.*RWY 09: 9.0 kt HW 0.2 kt RCW
Visibility9999 m
Phenomena:N/A
Clouds:N/A
Expected CloudBase > 3,200 ft AGL from Temp-Dew spread
CeilingNone
Temp28°C (ISA +13)
Dew Point20°C (62% RH)
Heat Index29.7°C
QNH1016 hPa
Density Alt1,745 ft
Elevation33 ft
Report Wrong Elevation
Raw Report
LFBH 262300Z AUTO 09009KT CAVOK 28/20 Q1016 NOSIG=

Extra information for LFBH:More info

Metar Taf Metar & Taf Last 4 Metars F.Rules Stats Wind Profile Meteogram Temp Stats Airport Information Weather charts Add Link Nearby VenuesMetar ALERT Operation Metar Decoded Social comments